createdAt,value
2017-01-27T00:01:10.196Z,-2.1
2017-01-27T00:02:21.790Z,-1.99
2017-01-27T00:03:33.196Z,-2.09
2017-01-27T00:04:44.599Z,-2.12
2017-01-27T00:05:56.045Z,-2.05
2017-01-27T00:07:07.446Z,-2.12
2017-01-27T00:08:19.053Z,-2.1
2017-01-27T00:09:30.458Z,-2.12
2017-01-27T00:10:41.866Z,-2.03
2017-01-27T00:11:53.318Z,-1.99
2017-01-27T00:13:04.716Z,-2.05
2017-01-27T00:14:16.114Z,-1.94
2017-01-27T00:15:27.518Z,-1.99
2017-01-27T00:16:39.155Z,-1.96
2017-01-27T00:17:50.613Z,-1.97
2017-01-27T00:19:02.015Z,-1.96
2017-01-27T00:20:13.624Z,-2
2017-01-27T00:21:25.220Z,-1.96
2017-01-27T00:22:36.620Z,-2.06
2017-01-27T00:23:48.075Z,-1.99
2017-01-27T00:24:59.476Z,-2.1
2017-01-27T00:26:10.882Z,-2.02
2017-01-27T00:27:22.283Z,-2.09
2017-01-27T00:28:33.887Z,-2.07
2017-01-27T00:29:45.328Z,-2.02
2017-01-27T00:30:56.724Z,-2
2017-01-27T00:32:08.126Z,-2
2017-01-27T00:33:19.524Z,-2.12
2017-01-27T00:34:31.124Z,-2.14
2017-01-27T00:35:42.573Z,-2.12
2017-01-27T00:36:53.967Z,-2.14
2017-01-27T00:38:05.378Z,-2.14
2017-01-27T00:39:16.780Z,-2.21
2017-01-27T00:40:28.380Z,-2.2
2017-01-27T00:41:39.823Z,-2.2
2017-01-27T00:42:51.223Z,-2.17
2017-01-27T00:44:02.626Z,-2.23
2017-01-27T00:45:14.028Z,-2.23
2017-01-27T00:46:25.625Z,-2.25
2017-01-27T00:47:37.081Z,-2.24
2017-01-27T00:48:48.680Z,-2.17
2017-01-27T00:50:00.080Z,-2.25
2017-01-27T00:51:11.479Z,-2.27
2017-01-27T00:52:22.876Z,-2.25
2017-01-27T00:53:34.341Z,-2.3
2017-01-27T00:54:45.732Z,-2.39
2017-01-27T00:55:57.122Z,-2.36
2017-01-27T00:57:08.725Z,-2.42
2017-01-27T00:58:20.129Z,-2.43
2017-01-27T00:59:31.572Z,-2.37
2017-01-27T01:00:42.984Z,-2.37
2017-01-27T01:01:54.594Z,-2.37
2017-01-27T01:03:05.998Z,-2.37
2017-01-27T01:04:17.399Z,-2.43
2017-01-27T01:05:28.854Z,-2.47
2017-01-27T01:06:40.253Z,-2.32
2017-01-27T01:07:51.651Z,-2.46
2017-01-27T01:09:03.054Z,-2.49
2017-01-27T01:10:14.456Z,-2.57
2017-01-27T01:11:25.916Z,-2.55
2017-01-27T01:12:37.313Z,-2.58
2017-01-27T01:13:48.917Z,-2.53
2017-01-27T01:15:00.322Z,-2.58
2017-01-27T01:16:11.730Z,-2.65
2017-01-27T01:17:23.374Z,-2.65
2017-01-27T01:18:34.778Z,-2.54
2017-01-27T01:19:46.182Z,-2.54
2017-01-27T01:20:57.579Z,-2.57
2017-01-27T01:22:08.985Z,-2.62
2017-01-27T01:23:20.445Z,-2.54
2017-01-27T01:24:31.841Z,-2.55
2017-01-27T01:25:43.233Z,-2.65
2017-01-27T01:26:54.626Z,-2.57
2017-01-27T01:28:06.228Z,-2.64
2017-01-27T01:29:17.671Z,-2.57
2017-01-27T01:30:29.064Z,-2.61
2017-01-27T01:31:40.470Z,-2.5
2017-01-27T01:32:52.066Z,-2.54
2017-01-27T01:34:03.468Z,-2.5
2017-01-27T01:35:15.320Z,-2.58
2017-01-27T01:36:26.724Z,-2.65
2017-01-27T01:37:38.117Z,-2.75
2017-01-27T01:38:49.512Z,-2.75
2017-01-27T01:40:00.944Z,-2.75
2017-01-27T01:41:12.395Z,-2.68
2017-01-27T01:42:23.992Z,-2.7
2017-01-27T01:43:35.395Z,-2.7
2017-01-27T01:44:46.801Z,-2.6
2017-01-27T01:45:58.398Z,-2.6
2017-01-27T01:47:10.047Z,-2.58
2017-01-27T01:48:21.440Z,-2.55
2017-01-27T01:49:33.042Z,-2.58
2017-01-27T01:50:44.449Z,-2.61
2017-01-27T01:51:55.843Z,-2.61
2017-01-27T01:53:07.486Z,-2.62
2017-01-27T01:54:18.888Z,-2.61
2017-01-27T01:55:30.495Z,-2.6
2017-01-27T01:56:41.897Z,-2.6
2017-01-27T01:57:53.298Z,-2.68
2017-01-27T01:59:04.755Z,-2.7
2017-01-27T02:00:16.164Z,-2.76
2017-01-27T02:01:27.567Z,-2.81
2017-01-27T02:02:38.964Z,-2.91
2017-01-27T02:03:50.367Z,-2.88
2017-01-27T02:05:01.820Z,-2.91
2017-01-27T02:06:13.438Z,-2.86
2017-01-27T02:07:25.045Z,-2.91
2017-01-27T02:08:36.447Z,-2.9
2017-01-27T02:09:48.045Z,-2.9
2017-01-27T02:10:59.500Z,-2.9
2017-01-27T02:12:10.904Z,-2.82
2017-01-27T02:13:22.506Z,-2.88
2017-01-27T02:14:33.907Z,-2.93
2017-01-27T02:15:45.310Z,-2.79
2017-01-27T02:16:56.790Z,-2.93
2017-01-27T02:18:08.192Z,-2.91
2017-01-27T02:19:19.595Z,-2.88
2017-01-27T02:20:30.991Z,-2.93
2017-01-27T02:21:42.593Z,-2.91
2017-01-27T02:22:54.047Z,-2.9
2017-01-27T02:24:05.856Z,-2.91
2017-01-27T02:25:17.259Z,-2.97
2017-01-27T02:26:28.658Z,-2.99
2017-01-27T02:27:40.064Z,-3
2017-01-27T02:28:51.522Z,-2.97
2017-01-27T02:30:02.914Z,-3
2017-01-27T02:31:14.315Z,-3.07
2017-01-27T02:32:25.716Z,-3.11
2017-01-27T02:33:37.124Z,-3.12
2017-01-27T02:34:48.782Z,-3.17
2017-01-27T02:36:00.185Z,-3.19
2017-01-27T02:37:11.582Z,-3.22
2017-01-27T02:38:22.973Z,-3.19
2017-01-27T02:39:34.372Z,-3.21
2017-01-27T02:40:45.822Z,-3.19
2017-01-27T02:41:57.222Z,-3.17
2017-01-27T02:43:08.620Z,-3.22
2017-01-27T02:44:20.016Z,-3.17
2017-01-27T02:45:31.420Z,-3.25
2017-01-27T02:46:42.870Z,-3.15
2017-01-27T02:47:54.475Z,-3.21
2017-01-27T02:49:05.879Z,-3.21
2017-01-27T02:50:17.481Z,-3.25
2017-01-27T02:51:28.894Z,-3.24
2017-01-27T02:52:40.345Z,-3.25
2017-01-27T02:53:51.750Z,-3.12
2017-01-27T02:55:03.360Z,-3.22
2017-01-27T02:56:14.759Z,-3.24
2017-01-27T02:57:26.152Z,-3.21
2017-01-27T02:58:37.803Z,-3.29
2017-01-27T02:59:49.233Z,-3.18
2017-01-27T03:01:00.630Z,-3.36
2017-01-27T03:02:12.239Z,-3.47
2017-01-27T03:03:23.637Z,-3.43
2017-01-27T03:04:35.298Z,-3.38
2017-01-27T03:05:46.700Z,-3.25
2017-01-27T03:06:58.101Z,-3.25
2017-01-27T03:08:09.505Z,-3.33
2017-01-27T03:09:20.896Z,-3.3
2017-01-27T03:10:32.356Z,-3.33
2017-01-27T03:11:43.759Z,-3.28
2017-01-27T03:12:55.155Z,-3.3
2017-01-27T03:14:06.586Z,-3.29
2017-01-27T03:15:18.196Z,-3.36
2017-01-27T03:16:29.648Z,-3.53
2017-01-27T03:17:41.054Z,-3.48
2017-01-27T03:18:52.466Z,-3.56
2017-01-27T03:20:03.865Z,-3.53
2017-01-27T03:21:15.261Z,-3.51
2017-01-27T03:22:26.712Z,-3.48
2017-01-27T03:23:38.140Z,-3.48
2017-01-27T03:24:49.549Z,-3.38
2017-01-27T03:26:00.953Z,-3.47
2017-01-27T03:27:12.351Z,-3.39
2017-01-27T03:28:24.001Z,-3.42
2017-01-27T03:29:35.401Z,-3.42
2017-01-27T03:30:46.792Z,-3.29
2017-01-27T03:31:58.392Z,-3.38
2017-01-27T03:33:09.788Z,-3.36
2017-01-27T03:34:21.239Z,-3.32
2017-01-27T03:35:32.835Z,-3.25
2017-01-27T03:36:44.233Z,-3.32
2017-01-27T03:37:55.668Z,-3.24
2017-01-27T03:39:07.072Z,-3.28
2017-01-27T03:40:18.513Z,-3.38
2017-01-27T03:41:29.903Z,-3.39
2017-01-27T03:42:41.301Z,-3.38
2017-01-27T03:43:52.899Z,-3.43
2017-01-27T03:45:04.321Z,-3.43
2017-01-27T03:46:15.974Z,-3.4
2017-01-27T03:47:27.783Z,-3.4
2017-01-27T03:48:39.177Z,-3.39
2017-01-27T03:49:50.565Z,-3.42
2017-01-27T03:51:01.962Z,-3.43
2017-01-27T03:52:13.415Z,-3.43
2017-01-27T03:53:24.817Z,-3.42
2017-01-27T03:54:36.231Z,-3.42
2017-01-27T03:55:47.628Z,-3.47
2017-01-27T03:56:59.028Z,-3.45
2017-01-27T03:58:10.508Z,-3.4
2017-01-27T03:59:21.908Z,-3.35
2017-01-27T04:00:33.305Z,-3.38
2017-01-27T04:01:44.903Z,-3.42
2017-01-27T04:02:56.308Z,-3.39
2017-01-27T04:04:07.766Z,-3.32
2017-01-27T04:05:19.159Z,-3.38
2017-01-27T04:06:30.556Z,-3.43
2017-01-27T04:07:42.164Z,-3.38
2017-01-27T04:08:53.556Z,-3.28
2017-01-27T04:10:05.049Z,-3.36
2017-01-27T04:11:16.455Z,-3.4
2017-01-27T04:12:28.051Z,-3.36
2017-01-27T04:13:39.448Z,-3.32
2017-01-27T04:14:50.843Z,-3.25
2017-01-27T04:16:02.292Z,-3.29
2017-01-27T04:17:13.694Z,-3.32
2017-01-27T04:18:25.086Z,-3.35
2017-01-27T04:19:36.896Z,-3.39
2017-01-27T04:20:48.303Z,-3.43
2017-01-27T04:21:59.752Z,-3.42
2017-01-27T04:23:11.351Z,-3.36
2017-01-27T04:24:22.958Z,-3.45
2017-01-27T04:25:34.361Z,-3.45
2017-01-27T04:26:45.768Z,-3.47
2017-01-27T04:27:57.234Z,-3.43
2017-01-27T04:29:08.898Z,-3.42
2017-01-27T04:30:20.304Z,-3.45
2017-01-27T04:31:31.698Z,-3.43
2017-01-27T04:32:43.297Z,-3.42
2017-01-27T04:33:55.153Z,-3.48
2017-01-27T04:35:06.553Z,-3.56
2017-01-27T04:36:17.951Z,-3.53
2017-01-27T04:37:29.355Z,-3.45
2017-01-27T04:38:40.752Z,-3.5
2017-01-27T04:39:52.207Z,-3.45
2017-01-27T04:41:03.605Z,-3.5
2017-01-27T04:42:15.003Z,-3.4
2017-01-27T04:43:26.402Z,-3.4
2017-01-27T04:44:37.807Z,-3.43
2017-01-27T04:45:49.462Z,-3.39
2017-01-27T04:47:00.858Z,-3.4
2017-01-27T04:48:12.272Z,-3.36
2017-01-27T04:49:23.667Z,-3.42
2017-01-27T04:50:35.067Z,-3.42
2017-01-27T04:51:46.506Z,-3.25
2017-01-27T04:52:57.918Z,-3.32
2017-01-27T04:54:09.316Z,-3.35
2017-01-27T04:55:20.713Z,-3.29
2017-01-27T04:56:32.114Z,-3.42
2017-01-27T04:57:43.568Z,-3.39
2017-01-27T04:58:54.976Z,-3.39
2017-01-27T05:00:06.380Z,-3.43
2017-01-27T05:01:17.788Z,-3.43
2017-01-27T05:02:29.184Z,-3.48
2017-01-27T05:03:40.635Z,-3.5
2017-01-27T05:04:52.039Z,-3.47
2017-01-27T05:06:03.447Z,-3.39
2017-01-27T05:07:15.044Z,-3.43
2017-01-27T05:08:26.442Z,-3.47
2017-01-27T05:09:38.094Z,-3.48
2017-01-27T05:10:49.491Z,-3.51
2017-01-27T05:12:00.893Z,-3.48
2017-01-27T05:13:12.289Z,-3.57
2017-01-27T05:14:23.679Z,-3.6
2017-01-27T05:15:35.323Z,-3.53
2017-01-27T05:16:46.723Z,-3.48
2017-01-27T05:17:58.112Z,-3.47
2017-01-27T05:19:09.512Z,-3.53
2017-01-27T05:20:20.913Z,-3.56
2017-01-27T05:21:32.360Z,-3.45
2017-01-27T05:22:44.172Z,-3.63
2017-01-27T05:23:55.797Z,-3.51
2017-01-27T05:25:07.197Z,-3.57
2017-01-27T05:26:18.607Z,-3.61
2017-01-27T05:27:30.060Z,-3.61
2017-01-27T05:28:41.460Z,-3.6
2017-01-27T05:29:52.868Z,-3.66
2017-01-27T05:31:04.467Z,-3.75
2017-01-27T05:32:15.867Z,-3.72
2017-01-27T05:33:27.318Z,-3.71
2017-01-27T05:34:38.711Z,-3.76
2017-01-27T05:35:50.136Z,-3.71
2017-01-27T05:37:01.743Z,-3.65
2017-01-27T05:38:13.139Z,-3.65
2017-01-27T05:39:24.585Z,-3.61
2017-01-27T05:40:35.996Z,-3.75
2017-01-27T05:41:47.391Z,-3.77
2017-01-27T05:42:58.785Z,-3.76
2017-01-27T05:44:10.376Z,-3.75
2017-01-27T05:45:21.821Z,-3.94
2017-01-27T05:46:33.211Z,-3.91
2017-01-27T05:47:44.614Z,-3.93
2017-01-27T05:48:56.038Z,-3.91
2017-01-27T05:50:07.440Z,-3.88
2017-01-27T05:51:18.886Z,-4.01
2017-01-27T05:52:30.285Z,-4.04
2017-01-27T05:53:41.957Z,-4.09
2017-01-27T05:54:53.355Z,-4.11
2017-01-27T05:56:04.787Z,-4
2017-01-27T05:57:16.239Z,-4.14
2017-01-27T05:58:27.841Z,-4.12
2017-01-27T05:59:39.439Z,-4.11
2017-01-27T06:00:50.846Z,-4.16
2017-01-27T06:02:02.246Z,-4.08
2017-01-27T06:03:13.696Z,-3.97
2017-01-27T06:04:25.094Z,-3.94
2017-01-27T06:05:36.496Z,-4.06
2017-01-27T06:06:47.893Z,-4.01
2017-01-27T06:07:59.287Z,-4.01
2017-01-27T06:09:10.736Z,-3.87
2017-01-27T06:10:22.533Z,-3.91
2017-01-27T06:11:33.930Z,-3.91
2017-01-27T06:12:45.334Z,-3.93
2017-01-27T06:13:56.937Z,-3.91
2017-01-27T06:15:08.387Z,-3.94
2017-01-27T06:16:19.993Z,-3.96
2017-01-27T06:17:31.398Z,-3.91
2017-01-27T06:18:42.804Z,-3.91
2017-01-27T06:19:54.212Z,-3.96
2017-01-27T06:21:05.664Z,-3.93
2017-01-27T06:22:17.261Z,-4.08
2017-01-27T06:23:28.665Z,-4.01
2017-01-27T06:24:40.066Z,-4.08
2017-01-27T06:25:51.471Z,-4.08
2017-01-27T06:27:03.129Z,-4.01
2017-01-27T06:28:14.532Z,-3.98
2017-01-27T06:29:25.942Z,-3.94
2017-01-27T06:30:37.352Z,-3.96
2017-01-27T06:31:48.749Z,-3.93
2017-01-27T06:33:00.210Z,-3.91
2017-01-27T06:34:11.616Z,-3.94
2017-01-27T06:35:23.021Z,-3.94
2017-01-27T06:36:34.624Z,-3.96
2017-01-27T06:37:46.024Z,-3.94
2017-01-27T06:38:57.480Z,-3.94
2017-01-27T06:40:08.881Z,-3.82
2017-01-27T06:41:20.286Z,-3.93
2017-01-27T06:42:31.685Z,-3.93
2017-01-27T06:43:43.084Z,-3.91
2017-01-27T06:44:54.538Z,-3.93
2017-01-27T06:46:05.948Z,-3.9
2017-01-27T06:47:17.356Z,-3.97
2017-01-27T06:48:28.748Z,-3.97
2017-01-27T06:49:40.355Z,-3.97
2017-01-27T06:50:51.801Z,-3.96
2017-01-27T06:52:03.213Z,-4
2017-01-27T06:53:14.616Z,-3.98
2017-01-27T06:54:26.010Z,-3.94
2017-01-27T06:55:37.407Z,-3.93
2017-01-27T06:56:48.852Z,-3.96
2017-01-27T06:58:00.241Z,-3.9
2017-01-27T06:59:11.630Z,-3.82
2017-01-27T07:00:23.235Z,-3.83
2017-01-27T07:01:34.636Z,-3.76
2017-01-27T07:02:46.288Z,-3.79
2017-01-27T07:03:57.710Z,-3.76
2017-01-27T07:05:09.110Z,-3.79
2017-01-27T07:06:20.501Z,-3.76
2017-01-27T07:07:32.106Z,-3.69
2017-01-27T07:08:43.560Z,-3.71
2017-01-27T07:09:55.155Z,-3.69
2017-01-27T07:11:06.758Z,-3.8
2017-01-27T07:12:18.158Z,-3.77
2017-01-27T07:13:29.755Z,-3.82
2017-01-27T07:14:41.200Z,-3.66
2017-01-27T07:15:52.593Z,-3.66
2017-01-27T07:17:03.997Z,-3.76
2017-01-27T07:18:15.394Z,-3.75
2017-01-27T07:19:26.791Z,-3.58
2017-01-27T07:20:38.248Z,-3.58
2017-01-27T07:21:49.848Z,-3.63
2017-01-27T07:23:01.646Z,-3.76
2017-01-27T07:24:13.259Z,-3.63
2017-01-27T07:25:24.671Z,-3.71
2017-01-27T07:26:36.519Z,-3.75
2017-01-27T07:27:47.920Z,-3.56
2017-01-27T07:28:59.315Z,-3.66
2017-01-27T07:30:10.918Z,-3.63
2017-01-27T07:31:22.313Z,-3.58
2017-01-27T07:32:33.767Z,-3.58
2017-01-27T07:33:45.182Z,-3.58
2017-01-27T07:34:56.585Z,-3.54
2017-01-27T07:36:07.981Z,-3.5
2017-01-27T07:37:19.585Z,-3.47
2017-01-27T07:38:31.035Z,-3.45
2017-01-27T07:39:42.843Z,-3.39
2017-01-27T07:40:54.247Z,-3.3
2017-01-27T07:42:05.663Z,-3.22
2017-01-27T07:43:17.267Z,-3.21
2017-01-27T07:44:28.712Z,-3.11
2017-01-27T07:45:40.122Z,-3.07
2017-01-27T07:46:51.948Z,-2.96
2017-01-27T07:48:03.348Z,-2.85
2017-01-27T07:49:14.741Z,-2.78
2017-01-27T07:50:26.190Z,-2.76
2017-01-27T07:51:37.598Z,-2.75
2017-01-27T07:52:48.997Z,-2.7
2017-01-27T07:54:00.402Z,-2.64
2017-01-27T07:55:11.794Z,-2.57
2017-01-27T07:56:23.244Z,-2.57
2017-01-27T07:57:34.645Z,-2.6
2017-01-27T07:58:46.076Z,-2.58
2017-01-27T07:59:57.471Z,-2.65
2017-01-27T08:01:09.073Z,-2.55
2017-01-27T08:02:20.521Z,-2.58
2017-01-27T08:03:31.924Z,-2.53
2017-01-27T08:04:43.530Z,-2.58
2017-01-27T08:05:55.137Z,-2.53
2017-01-27T08:07:06.541Z,-2.55
2017-01-27T08:08:17.997Z,-2.43
2017-01-27T08:09:29.598Z,-2.49
2017-01-27T08:10:41.003Z,-2.39
2017-01-27T08:11:52.613Z,-2.27
2017-01-27T08:13:04.018Z,-2.2
2017-01-27T08:14:15.468Z,-2.06
2017-01-27T08:15:26.863Z,-1.97
2017-01-27T08:16:38.258Z,-2.02
2017-01-27T08:17:49.864Z,-1.85
2017-01-27T08:19:01.264Z,-1.63
2017-01-27T08:20:12.927Z,-1.66
2017-01-27T08:21:24.554Z,-1.49
2017-01-27T08:22:36.165Z,-1.43
2017-01-27T08:23:47.568Z,-1.32
2017-01-27T08:24:58.997Z,-1.21
2017-01-27T08:26:10.446Z,-1.25
2017-01-27T08:27:22.054Z,-1.13
2017-01-27T08:28:33.455Z,-1.11
2017-01-27T08:29:44.862Z,-0.96
2017-01-27T08:30:56.265Z,-0.98
2017-01-27T08:32:07.916Z,-0.92
2017-01-27T08:33:19.318Z,-0.98
2017-01-27T08:34:30.917Z,-0.99
2017-01-27T08:35:42.321Z,-0.93
2017-01-27T08:36:53.722Z,-0.77
2017-01-27T08:38:05.380Z,-0.85
2017-01-27T08:39:16.807Z,-0.76
2017-01-27T08:40:28.416Z,-0.69
2017-01-27T08:41:39.820Z,-0.56
2017-01-27T08:42:51.421Z,-0.58
2017-01-27T08:44:02.875Z,-0.51
2017-01-27T08:45:14.281Z,-0.46
2017-01-27T08:46:25.681Z,-0.46
2017-01-27T08:47:37.093Z,-0.38
2017-01-27T08:48:48.490Z,-0.45
2017-01-27T08:49:59.941Z,-0.41
2017-01-27T08:51:11.350Z,-0.27
2017-01-27T08:52:22.960Z,-0.19
2017-01-27T08:53:34.371Z,-0.15
2017-01-27T08:54:45.768Z,0.01
2017-01-27T08:55:57.217Z,-0.02
2017-01-27T08:57:08.621Z,-0.09
2017-01-27T08:58:20.025Z,-0.02
2017-01-27T08:59:31.432Z,-0.09
2017-01-27T09:00:42.845Z,0.05
2017-01-27T09:01:54.505Z,-0.01
2017-01-27T09:03:05.924Z,0.06
2017-01-27T09:04:17.322Z,0.14
2017-01-27T09:05:28.721Z,0.13
2017-01-27T09:06:40.330Z,0.14
2017-01-27T09:07:51.792Z,0.16
2017-01-27T09:09:03.201Z,0.24
2017-01-27T09:10:14.600Z,0.35
2017-01-27T09:11:26.026Z,0.35
2017-01-27T09:12:37.448Z,0.38
2017-01-27T09:13:48.902Z,0.53
2017-01-27T09:15:00.310Z,0.63
2017-01-27T09:16:11.712Z,0.79
2017-01-27T09:17:23.114Z,0.84
2017-01-27T09:18:34.752Z,0.96
2017-01-27T09:19:46.204Z,1.07
2017-01-27T09:20:57.616Z,1.14
2017-01-27T09:22:09.027Z,1.21
2017-01-27T09:23:20.434Z,1.32
2017-01-27T09:24:31.830Z,1.42
2017-01-27T09:25:43.527Z,1.51
2017-01-27T09:26:54.938Z,1.51
2017-01-27T09:28:06.552Z,1.48
2017-01-27T09:29:17.956Z,1.46
2017-01-27T09:30:29.375Z,1.54
2017-01-27T09:31:40.832Z,1.42
2017-01-27T09:32:52.243Z,1.48
2017-01-27T09:34:03.642Z,1.61
2017-01-27T09:35:15.042Z,1.6
2017-01-27T09:36:26.450Z,1.74
2017-01-27T09:37:37.908Z,1.75
2017-01-27T09:38:49.538Z,1.74
2017-01-27T09:40:01.146Z,1.92
2017-01-27T09:41:12.560Z,1.92
2017-01-27T09:42:23.974Z,1.94
2017-01-27T09:43:35.436Z,1.94
2017-01-27T09:44:46.859Z,1.94
2017-01-27T09:45:58.259Z,2.04
2017-01-27T09:47:09.868Z,1.97
2017-01-27T09:48:21.275Z,2.18
2017-01-27T09:49:32.739Z,2.09
2017-01-27T09:50:44.149Z,2.3
2017-01-27T09:51:55.561Z,2.42
2017-01-27T09:53:06.986Z,2.47
2017-01-27T09:54:18.399Z,2.48
2017-01-27T09:55:29.857Z,2.58
2017-01-27T09:56:41.461Z,2.58
2017-01-27T09:57:52.872Z,2.6
2017-01-27T09:59:04.279Z,2.59
2017-01-27T10:00:15.688Z,2.7
2017-01-27T10:01:27.145Z,2.77
2017-01-27T10:02:38.554Z,2.69
2017-01-27T10:03:50.153Z,2.8
2017-01-27T10:05:01.562Z,2.81
2017-01-27T10:06:12.975Z,2.66
2017-01-27T10:07:24.635Z,2.6
2017-01-27T10:08:36.042Z,2.63
2017-01-27T10:09:47.455Z,2.6
2017-01-27T10:10:59.063Z,2.65
2017-01-27T10:12:10.669Z,2.76
2017-01-27T10:13:22.116Z,2.76
2017-01-27T10:14:33.531Z,2.85
2017-01-27T10:15:44.945Z,2.91
2017-01-27T10:16:56.355Z,2.96
2017-01-27T10:18:07.981Z,3.27
2017-01-27T10:19:19.434Z,3.49
2017-01-27T10:20:30.848Z,3.54
2017-01-27T10:21:42.290Z,3.67
2017-01-27T10:22:53.728Z,3.74
2017-01-27T10:24:05.142Z,4
2017-01-27T10:25:16.799Z,4.21
2017-01-27T10:26:28.225Z,4.54
2017-01-27T10:27:39.633Z,4.72
2017-01-27T10:28:51.042Z,4.92
2017-01-27T10:30:02.453Z,5.16
2017-01-27T10:31:13.917Z,5.2
2017-01-27T10:32:25.318Z,5.08
2017-01-27T10:33:36.955Z,5.21
2017-01-27T10:34:48.568Z,5.39
2017-01-27T10:35:59.984Z,5.41
2017-01-27T10:37:11.454Z,5.45
2017-01-27T10:38:22.863Z,5.27
2017-01-27T10:39:34.477Z,5.1
2017-01-27T10:40:45.891Z,5.12
2017-01-27T10:41:57.302Z,5.18
2017-01-27T10:43:08.769Z,5.3
2017-01-27T10:44:20.183Z,5.31
2017-01-27T10:45:31.587Z,5.34
2017-01-27T10:46:43.197Z,5.24
2017-01-27T10:47:54.618Z,5
2017-01-27T10:49:06.084Z,5.02
2017-01-27T10:50:17.490Z,5.1
2017-01-27T10:51:28.907Z,5.05
2017-01-27T10:52:40.315Z,5.24
2017-01-27T10:53:51.936Z,5.37
2017-01-27T10:55:03.396Z,5.6
2017-01-27T10:56:14.810Z,5.72
2017-01-27T10:57:26.232Z,5.78
2017-01-27T10:58:37.647Z,5.96
2017-01-27T10:59:49.064Z,6.13
2017-01-27T11:01:00.527Z,6.25
2017-01-27T11:02:11.939Z,6.24
2017-01-27T11:03:23.353Z,6.51
2017-01-27T11:04:34.996Z,6.82
2017-01-27T11:05:46.418Z,7
2017-01-27T11:06:57.885Z,7.19
2017-01-27T11:08:09.289Z,7.22
2017-01-27T11:09:20.702Z,7.23
2017-01-27T11:10:32.117Z,7.48
2017-01-27T11:11:43.534Z,7.58
2017-01-27T11:12:55.007Z,7.63
2017-01-27T11:14:06.426Z,7.71
2017-01-27T11:15:17.838Z,7.68
2017-01-27T11:16:29.276Z,7.88
2017-01-27T11:17:40.887Z,7.83
2017-01-27T11:18:52.351Z,7.8
2017-01-27T11:20:03.791Z,7.77
2017-01-27T11:21:15.406Z,7.73
2017-01-27T11:22:26.820Z,7.68
2017-01-27T11:23:38.426Z,7.64
2017-01-27T11:24:49.897Z,7.56
2017-01-27T11:26:01.314Z,7.51
2017-01-27T11:27:12.723Z,7.36
2017-01-27T11:28:24.142Z,7.45
2017-01-27T11:29:35.955Z,7.61
2017-01-27T11:30:47.423Z,7.55
2017-01-27T11:31:58.824Z,7.59
2017-01-27T11:33:10.249Z,7.59
2017-01-27T11:34:21.658Z,7.45
2017-01-27T11:35:33.090Z,7.22
2017-01-27T11:36:44.750Z,7.19
2017-01-27T11:37:56.161Z,7.16
2017-01-27T11:39:07.578Z,7.19
2017-01-27T11:40:18.996Z,7.12
2017-01-27T11:41:30.408Z,7.11
2017-01-27T11:42:41.871Z,7.11
2017-01-27T11:43:53.477Z,7.22
2017-01-27T11:45:04.895Z,7.22
2017-01-27T11:46:16.312Z,7.05
2017-01-27T11:47:27.730Z,7.04
2017-01-27T11:48:39.187Z,7.05
2017-01-27T11:49:50.804Z,7.16
2017-01-27T11:51:02.413Z,7.03
2017-01-27T11:52:13.823Z,7.08
2017-01-27T11:53:25.435Z,7.08
2017-01-27T11:54:36.894Z,7.11
2017-01-27T11:55:48.308Z,7.09
2017-01-27T11:56:59.721Z,7.16
2017-01-27T11:58:11.142Z,7.23
2017-01-27T11:59:22.568Z,7.37
2017-01-27T12:00:34.036Z,7.36
2017-01-27T12:01:45.450Z,7.37
2017-01-27T12:02:57.066Z,7.55
2017-01-27T12:04:08.485Z,7.59
2017-01-27T12:05:20.095Z,7.74
2017-01-27T12:06:31.567Z,7.71
2017-01-27T12:07:43.041Z,7.78
2017-01-27T12:08:54.643Z,7.74
2017-01-27T12:10:06.051Z,7.77
2017-01-27T12:11:17.456Z,7.88
2017-01-27T12:12:28.913Z,7.85
2017-01-27T12:13:40.556Z,7.92
2017-01-27T12:14:51.972Z,7.89
2017-01-27T12:16:03.380Z,7.93
2017-01-27T12:17:14.813Z,7.88
2017-01-27T12:18:26.275Z,7.77
2017-01-27T12:19:37.685Z,7.74
2017-01-27T12:20:49.103Z,7.67
2017-01-27T12:22:00.506Z,7.68
2017-01-27T12:23:11.918Z,7.77
2017-01-27T12:24:23.380Z,7.83
2017-01-27T12:25:34.787Z,7.92
2017-01-27T12:26:46.200Z,7.86
2017-01-27T12:27:57.821Z,7.82
2017-01-27T12:29:09.431Z,8.04
2017-01-27T12:30:20.895Z,7.92
2017-01-27T12:31:32.510Z,7.96
2017-01-27T12:32:43.921Z,8.01
2017-01-27T12:33:55.347Z,8.01
2017-01-27T12:35:06.955Z,7.95
2017-01-27T12:36:18.412Z,7.98
2017-01-27T12:37:30.230Z,7.89
2017-01-27T12:38:41.651Z,7.98
2017-01-27T12:39:53.080Z,8.11
2017-01-27T12:41:04.499Z,8.13
2017-01-27T12:42:15.954Z,8.11
2017-01-27T12:43:27.361Z,8.22
2017-01-27T12:44:38.776Z,8.31
2017-01-27T12:45:50.191Z,8.21
2017-01-27T12:47:01.605Z,8.24
2017-01-27T12:48:13.070Z,8.35
2017-01-27T12:49:24.481Z,8.24
2017-01-27T12:50:35.887Z,8.4
2017-01-27T12:51:47.301Z,8.46
2017-01-27T12:52:58.710Z,8.5
2017-01-27T12:54:10.381Z,8.44
2017-01-27T12:55:21.991Z,8.28
2017-01-27T12:56:33.410Z,8.25
2017-01-27T12:57:44.819Z,8.25
2017-01-27T12:58:56.438Z,8.34
2017-01-27T13:00:07.945Z,8.34
2017-01-27T13:01:19.348Z,8.42
2017-01-27T13:02:30.769Z,8.42
2017-01-27T13:03:42.383Z,8.4
2017-01-27T13:04:54.036Z,8.61
2017-01-27T13:06:05.504Z,8.67
2017-01-27T13:07:16.923Z,8.8
2017-01-27T13:08:28.336Z,8.82
2017-01-27T13:09:39.749Z,8.89
2017-01-27T13:10:51.368Z,8.8
2017-01-27T13:12:02.840Z,8.64
2017-01-27T13:13:14.252Z,8.58
2017-01-27T13:14:25.864Z,8.47
2017-01-27T13:15:37.277Z,8.42
2017-01-27T13:16:48.696Z,8.43
2017-01-27T13:18:00.359Z,8.36
2017-01-27T13:19:11.808Z,8.34
2017-01-27T13:20:23.430Z,8.34
2017-01-27T13:21:35.245Z,8.24
2017-01-27T13:22:46.661Z,8.25
2017-01-27T13:23:58.322Z,8.32
2017-01-27T13:25:09.738Z,8.25
2017-01-27T13:26:21.163Z,8.24
2017-01-27T13:27:32.571Z,8.24
2017-01-27T13:28:44.002Z,8.13
2017-01-27T13:29:55.458Z,8.16
2017-01-27T13:31:06.873Z,8.14
2017-01-27T13:32:18.273Z,8.07
2017-01-27T13:33:29.688Z,8.09
2017-01-27T13:34:41.100Z,8.03
2017-01-27T13:35:52.563Z,8.01
2017-01-27T13:37:03.976Z,8.09
2017-01-27T13:38:15.393Z,8.03
2017-01-27T13:39:27.005Z,7.96
2017-01-27T13:40:38.418Z,7.98
2017-01-27T13:41:49.887Z,7.92
2017-01-27T13:43:01.299Z,7.89
2017-01-27T13:44:12.706Z,7.85
2017-01-27T13:45:24.320Z,7.85
2017-01-27T13:46:35.731Z,7.82
2017-01-27T13:47:47.196Z,7.77
2017-01-27T13:48:58.604Z,7.8
2017-01-27T13:50:10.023Z,7.75
2017-01-27T13:51:21.636Z,7.73
2017-01-27T13:52:33.048Z,7.63
2017-01-27T13:53:44.511Z,7.59
2017-01-27T13:54:55.935Z,7.54
2017-01-27T13:56:07.356Z,7.55
2017-01-27T13:57:18.760Z,7.44
2017-01-27T13:58:30.165Z,7.36
2017-01-27T13:59:42.016Z,7.44
2017-01-27T14:00:53.424Z,7.36
2017-01-27T14:02:04.835Z,7.31
2017-01-27T14:03:16.240Z,7.23
2017-01-27T14:04:27.647Z,7.22
2017-01-27T14:05:39.110Z,7.21
2017-01-27T14:06:50.523Z,7.15
2017-01-27T14:08:01.934Z,7.13
2017-01-27T14:09:13.345Z,7.18
2017-01-27T14:10:24.755Z,7.09
2017-01-27T14:11:36.217Z,7.05
2017-01-27T14:12:47.624Z,7.03
2017-01-27T14:13:59.037Z,7.03
2017-01-27T14:15:10.438Z,7.04
2017-01-27T14:16:21.847Z,7.05
2017-01-27T14:17:33.310Z,6.93
2017-01-27T14:18:44.730Z,6.88
2017-01-27T14:19:56.352Z,6.83
2017-01-27T14:21:07.964Z,6.68
2017-01-27T14:22:19.407Z,6.82
2017-01-27T14:23:30.864Z,6.73
2017-01-27T14:24:42.277Z,6.76
2017-01-27T14:25:53.887Z,6.6
2017-01-27T14:27:05.297Z,6.65
2017-01-27T14:28:16.914Z,6.64
2017-01-27T14:29:28.569Z,6.62
2017-01-27T14:30:39.983Z,6.6
2017-01-27T14:31:51.408Z,6.58
2017-01-27T14:33:02.825Z,6.61
2017-01-27T14:34:14.432Z,6.61
2017-01-27T14:35:25.884Z,6.54
2017-01-27T14:36:37.290Z,6.54
2017-01-27T14:37:48.717Z,6.64
2017-01-27T14:39:00.154Z,6.54
2017-01-27T14:40:11.566Z,6.52
2017-01-27T14:41:23.029Z,6.54
2017-01-27T14:42:34.440Z,6.62
2017-01-27T14:43:45.852Z,6.47
2017-01-27T14:44:57.275Z,6.55
2017-01-27T14:46:08.687Z,6.47
2017-01-27T14:47:20.148Z,6.39
2017-01-27T14:48:31.794Z,6.44
2017-01-27T14:49:43.216Z,6.43
2017-01-27T14:50:54.618Z,6.31
2017-01-27T14:52:06.049Z,6.37
2017-01-27T14:53:17.918Z,6.25
2017-01-27T14:54:29.339Z,6.25
2017-01-27T14:55:40.952Z,6.14
2017-01-27T14:56:52.570Z,6.1
2017-01-27T14:58:03.997Z,6.15
2017-01-27T14:59:15.456Z,6.2
2017-01-27T15:00:26.864Z,6.06
2017-01-27T15:01:38.278Z,6.09
2017-01-27T15:02:49.894Z,6.17
2017-01-27T15:04:01.505Z,6.13
2017-01-27T15:05:12.968Z,6.17
2017-01-27T15:06:24.377Z,6.2
2017-01-27T15:07:35.979Z,6.07
2017-01-27T15:08:47.394Z,6.06
2017-01-27T15:09:58.834Z,6.09
2017-01-27T15:11:10.299Z,6.17
2017-01-27T15:12:21.709Z,6.06
2017-01-27T15:13:33.325Z,6.07
2017-01-27T15:14:44.737Z,6
2017-01-27T15:15:56.137Z,5.95
2017-01-27T15:17:07.594Z,5.88
2017-01-27T15:18:19.404Z,5.92
2017-01-27T15:19:30.808Z,5.85
2017-01-27T15:20:42.224Z,5.84
2017-01-27T15:21:53.639Z,5.84
2017-01-27T15:23:05.098Z,5.8
2017-01-27T15:24:16.515Z,5.69
2017-01-27T15:25:27.937Z,5.77
2017-01-27T15:26:39.345Z,5.69
2017-01-27T15:27:50.956Z,5.6
2017-01-27T15:29:02.421Z,5.54
2017-01-27T15:30:13.826Z,5.54
2017-01-27T15:31:25.232Z,5.46
2017-01-27T15:32:36.639Z,5.49
2017-01-27T15:33:48.063Z,5.48
2017-01-27T15:34:59.732Z,5.45
2017-01-27T15:36:11.142Z,5.36
2017-01-27T15:37:22.550Z,5.36